Aérodrome :







RETROUVEZ-NOUS SUR...

 
LOGIN :

S'inscrire | Disclaimer

   EN    FR    IT 

 









Légende :    VFR   VFR Marginal   IFR   IFR Intensif   IFR Très Intensif
Visi : 
Plafond : 
>= 8 km
>= 3000ft
5 à 8 km
1000 à 3000 ft
1500m à 5 km
500 à 1000 ft
800 à 1500m
200 à 500 ft
< 800m
< 200 ft
Symboles :   Orages  Brouillard  Fortes neiges  Fortes précipitations  Vent > 20 kt






- Altitude de l'aérodrome : 1194 ft


KPSF - Pittsfield Municipal

DERNIER METAR :
  • 291054Z AUTO 32008KT 10SM OVC021 M04/M09 A2993 RMK AO2 SLP148 T10391089

METARs EXPIRÉS :
  • 290954Z AUTO 31010G16KT 10SM OVC020 M04/M09 A2991 RMK AO2 SLP143 T10391089
  • 290854Z AUTO 32007KT 10SM OVC018 M04/M08 A2990 RMK AO2 SLP137 60001 T10391078 51010
  • 290835Z AUTO 30010KT 10SM OVC016 M04/M07 A2990 RMK AO2 T10391072

TAF KPSF
Valide du 29 à 06h jusqu'au 30 à 06h UTC


290530Z 2906/3006 30010KT P6SM VCSH BKN015
TEMPO 2906/2910 6SM -SN BKN012
FM291000 32009KT P6SM BKN015
FM291400 33008KT P6SM SCT020



MET'MAP, la Météo Aéronautique d'un coup d'oeil ! - Copyright ORBIFLY Décembre 2007 - Disclaimer

ORBIFLY MET'MAP TEAM :

Programmation & Développement : Alexandra Zaïnal
Sur une idée originale de : Baudouin d'Aumeries
Assistance à la programmation : Marc-Olivier Méhu
Soutien technique & logistique : Manuel Goepfert

Contact : metmap@orbifly.com




SOURCES & CREDITS :

   NOAA